createdAt,value
2023-04-29T00:09:57.000Z,56.90
2023-04-29T00:19:57.000Z,57.50
2023-04-29T00:29:56.000Z,68.20
2023-04-29T00:39:55.000Z,50.40
2023-04-29T00:49:54.000Z,62.80
2023-04-29T00:59:54.000Z,52.40
2023-04-29T01:09:53.000Z,60.30
2023-04-29T01:19:52.000Z,62.00
2023-04-29T01:39:51.000Z,69.10
2023-04-29T01:49:50.000Z,61.20
2023-04-29T01:59:49.000Z,76.50
2023-04-29T02:09:49.000Z,72.20
2023-04-29T02:19:48.000Z,77.90
2023-04-29T02:29:47.000Z,73.40
2023-04-29T02:39:46.000Z,91.50
2023-04-29T02:49:46.000Z,85.20
2023-04-29T03:09:44.000Z,79.60
2023-04-29T03:19:44.000Z,90.60
2023-04-29T03:29:43.000Z,105.70
2023-04-29T03:39:42.000Z,98.00
2023-04-29T03:49:42.000Z,113.60
2023-04-29T03:59:41.000Z,119.60
2023-04-29T04:09:40.000Z,111.40
2023-04-29T04:19:39.000Z,101.10
2023-04-29T04:39:38.000Z,124.90
2023-04-29T04:49:37.000Z,103.40
2023-04-29T04:59:36.000Z,94.20
2023-04-29T05:09:35.000Z,87.50
2023-04-29T05:19:35.000Z,56.70
2023-04-29T05:29:34.000Z,46.40
2023-04-29T05:39:33.000Z,48.00
2023-04-29T05:49:32.000Z,28.80
2023-04-29T06:09:30.000Z,32.30
2023-04-29T06:19:29.000Z,33.00
2023-04-29T06:29:28.000Z,27.40
2023-04-29T06:39:27.000Z,30.70
2023-04-29T06:49:26.000Z,37.20
2023-04-29T06:59:25.000Z,26.50
2023-04-29T07:09:24.000Z,23.90
2023-04-29T07:19:24.000Z,24.90
2023-04-29T07:39:22.000Z,25.90
2023-04-29T07:49:21.000Z,40.70
2023-04-29T07:59:20.000Z,36.30
2023-04-29T08:09:19.000Z,44.70
2023-04-29T08:19:18.000Z,38.60
2023-04-29T08:29:17.000Z,46.70
2023-04-29T08:39:16.000Z,39.80
2023-04-29T08:49:15.000Z,27.30
2023-04-29T09:09:13.000Z,27.10
2023-04-29T09:19:12.000Z,34.30
2023-04-29T09:29:11.000Z,35.30
2023-04-29T09:39:11.000Z,18.40
2023-04-29T09:49:10.000Z,27.00
2023-04-29T09:59:09.000Z,17.60
2023-04-29T10:09:08.000Z,18.20
2023-04-29T10:19:07.000Z,22.50
2023-04-29T10:39:05.000Z,24.80
2023-04-29T10:49:04.000Z,41.90
2023-04-29T10:59:04.000Z,51.70
2023-04-29T11:09:03.000Z,48.80
2023-04-29T11:19:02.000Z,59.40
2023-04-29T11:29:01.000Z,48.90
2023-04-29T11:39:00.000Z,46.30
2023-04-29T11:49:00.000Z,52.30
2023-04-29T12:08:58.000Z,45.20
2023-04-29T12:18:57.000Z,44.30
2023-04-29T12:28:56.000Z,35.00
2023-04-29T12:38:56.000Z,31.60
2023-04-29T12:48:55.000Z,21.00
2023-04-29T12:58:54.000Z,33.90
2023-04-29T13:08:53.000Z,23.90
2023-04-29T13:08:53.000Z,23.90
2023-04-29T13:18:52.000Z,27.40
2023-04-29T13:38:50.000Z,29.70
2023-04-29T13:38:50.000Z,29.70
2023-04-29T13:48:49.000Z,24.40
2023-04-29T13:58:48.000Z,25.70
2023-04-29T14:08:47.000Z,21.30
2023-04-29T14:18:46.000Z,21.00
2023-04-29T14:28:45.000Z,22.00
2023-04-29T14:38:44.000Z,17.80
2023-04-29T14:48:43.000Z,17.20
2023-04-29T15:08:40.000Z,14.60
2023-04-29T15:18:39.000Z,25.20
2023-04-29T15:28:38.000Z,15.50
2023-04-29T15:38:37.000Z,20.10
2023-04-29T15:48:36.000Z,16.10
2023-04-29T15:58:35.000Z,15.80
2023-04-29T16:08:34.000Z,20.90
2023-04-29T16:18:33.000Z,19.60
2023-04-29T16:38:31.000Z,13.60
2023-04-29T16:48:30.000Z,13.30
2023-04-29T16:58:29.000Z,16.20
2023-04-29T17:08:28.000Z,23.80
2023-04-29T17:18:27.000Z,17.30
2023-04-29T17:28:26.000Z,19.60
2023-04-29T17:38:25.000Z,22.50
2023-04-29T17:48:24.000Z,20.00
2023-04-29T18:08:22.000Z,32.50
2023-04-29T18:18:21.000Z,23.10
2023-04-29T18:28:20.000Z,27.90
2023-04-29T18:38:19.000Z,28.70
2023-04-29T18:48:19.000Z,32.60
2023-04-29T19:13:34.000Z,28.70
2023-04-29T19:44:27.000Z,23.90
2023-04-29T19:59:44.000Z,25.10
2023-04-29T19:59:44.000Z,25.50
2023-04-29T20:30:01.000Z,20.40
2023-04-29T20:30:01.000Z,21.90
2023-04-29T20:40:01.000Z,26.70
2023-04-29T20:50:01.000Z,27.20
2023-04-29T21:00:01.000Z,22.70
2023-04-29T21:10:02.000Z,20.90
2023-04-29T21:20:02.000Z,22.30
2023-04-29T21:30:02.000Z,26.00
2023-04-29T21:40:02.000Z,33.80
2023-04-29T22:00:02.000Z,30.20
2023-04-29T22:10:02.000Z,25.80
2023-04-29T22:20:03.000Z,23.30
2023-04-29T22:30:03.000Z,18.30
2023-04-29T22:40:03.000Z,29.30
2023-04-29T22:50:03.000Z,20.40
2023-04-29T23:00:04.000Z,20.20
2023-04-29T23:10:04.000Z,34.80
2023-04-29T23:30:05.000Z,16.80
2023-04-29T23:40:05.000Z,14.70
2023-04-29T23:50:06.000Z,16.10
